Time;durP1;ratioP1;P1;durP2;ratioP2;P2;SDS_P1;SDS_P2;PMS_P1;PMS_P2;Temp;Humidity;BMP_temperature;BMP_pressure;BME280_temperature;BME280_humidity;BME280_pressure;Samples;Min_cycle;Max_cycle;Signal;HPM_P1;HPM_P2
2024/03/03 00:01:02;;;;;;;;;;;;;;;10.69;63.77;98247.97;4162557;28;20080;-71
2024/03/03 00:03:03;;;;;;;22.33;14.33;;;;;;;10.64;63.42;98239.69;4162272;28;19916;-70
2024/03/03 00:05:04;;;;;;;20.10;13.10;;;;;;;10.76;63.11;98240.84;4162628;28;20084;-70
2024/03/03 00:07:05;;;;;;;21.05;14.50;;;;;;;10.63;63.58;98237.22;4162565;28;20490;-71
2024/03/03 00:09:05;;;;;;;24.40;16.92;;;;;;;10.47;64.19;98232.94;4163281;28;20437;-69
2024/03/03 00:11:06;;;;;;;20.92;13.88;;;;;;;10.52;63.96;98236.69;4177748;28;20036;-71
2024/03/03 00:13:06;;;;;;;20.05;13.45;;;;;;;10.60;63.87;98243.75;4181792;28;20032;-71
2024/03/03 00:15:07;;;;;;;19.40;13.07;;;;;;;10.74;63.25;98236.69;4181842;28;20401;-71
2024/03/03 00:17:07;;;;;;;18.13;12.07;;;;;;;10.77;63.04;98239.81;4181654;28;20032;-71
2024/03/03 00:19:09;;;;;;;20.02;12.65;;;;;;;10.82;63.07;98230.41;4182156;28;20029;-70
2024/03/03 00:21:13;;;;;;;21.27;14.10;;;;;;;10.73;63.17;98235.03;4181667;28;20473;-71
2024/03/03 00:23:14;;;;;;;21.75;14.55;;;;;;;10.65;63.29;98225.31;4182340;28;20047;-69
2024/03/03 00:25:14;;;;;;;23.25;14.55;;;;;;;10.68;63.41;98224.91;4183769;28;20052;-68
2024/03/03 00:27:15;;;;;;;19.65;13.57;;;;;;;10.74;63.26;98221.50;4182863;28;20485;-69
2024/03/03 00:29:16;;;;;;;20.88;13.02;;;;;;;10.76;63.11;98222.16;4181911;28;20024;-71
2024/03/03 00:31:18;;;;;;;24.17;15.23;;;;;;;10.63;63.48;98226.53;4181704;28;20025;-68
2024/03/03 00:33:19;;;;;;;22.70;16.08;;;;;;;10.38;64.19;98227.72;4181713;28;20107;-71
2024/03/03 00:35:19;;;;;;;23.55;14.85;;;;;;;10.52;64.05;98223.34;4181726;28;20036;-68
2024/03/03 00:37:20;;;;;;;22.23;15.32;;;;;;;10.49;64.17;98229.06;4181619;28;20032;-71
2024/03/03 00:39:21;;;;;;;23.00;15.00;;;;;;;10.39;64.22;98221.31;4181754;28;20021;-69
2024/03/03 00:41:21;;;;;;;26.30;15.88;;;;;;;10.25;64.70;98212.31;4181536;28;20506;-69
2024/03/03 00:43:22;;;;;;;26.77;15.93;;;;;;;10.20;64.97;98211.22;4181651;28;20057;-69
2024/03/03 00:45:22;;;;;;;25.98;16.30;;;;;;;10.22;64.88;98211.84;4181468;28;20064;-70
2024/03/03 00:47:23;;;;;;;25.52;16.02;;;;;;;10.18;65.13;98214.06;4181549;28;20017;-70
2024/03/03 00:49:23;;;;;;;25.90;16.27;;;;;;;10.25;64.79;98212.31;4167274;28;20033;-70
2024/03/03 00:51:24;;;;;;;22.73;15.07;;;;;;;10.29;64.68;98204.75;4165214;28;20021;-71
2024/03/03 00:53:25;;;;;;;25.33;15.93;;;;;;;10.18;64.99;98203.38;4164818;28;20037;-70
2024/03/03 00:55:25;;;;;;;23.63;15.63;;;;;;;10.13;65.31;98206.63;4163831;28;20021;-70
2024/03/03 00:57:26;;;;;;;24.20;15.35;;;;;;;10.22;65.06;98207.34;4165346;28;20036;-69
2024/03/03 00:59:27;;;;;;;25.98;16.77;;;;;;;10.20;65.12;98212.03;4165290;28;20474;-70
2024/03/03 01:01:27;;;;;;;22.60;14.88;;;;;;;10.36;64.48;98215.50;4167247;28;20051;-70
2024/03/03 01:03:31;;;;;;;25.23;15.82;;;;;;;10.23;64.76;98210.84;4184361;28;20057;-69
2024/03/03 01:05:32;;;;;;;23.63;16.25;;;;;;;10.24;64.76;98202.66;4184502;28;20032;-70
2024/03/03 01:07:34;;;;;;;26.55;16.92;;;;;;;10.31;64.60;98197.38;4182473;28;20021;-71
2024/03/03 01:09:36;;;;;;;24.40;14.57;;;;;;;10.35;64.45;98192.47;4182216;28;20041;-70
2024/03/03 01:11:38;;;;;;;21.70;15.07;;;;;;;10.41;64.16;98195.25;4174681;28;20025;-70
2024/03/03 01:13:38;;;;;;;25.63;15.93;;;;;;;10.27;64.50;98191.59;4174284;28;20033;-70
2024/03/03 01:15:38;;;;;;;25.10;16.70;;;;;;;10.18;64.89;98194.56;4175947;28;20121;-70
2024/03/03 01:17:39;;;;;;;26.63;16.20;;;;;;;10.08;65.33;98193.00;4176378;28;20029;-70
2024/03/03 01:19:40;;;;;;;28.15;17.17;;;;;;;10.06;65.46;98192.38;4176369;28;20041;-70
2024/03/03 01:21:41;;;;;;;23.65;16.45;;;;;;;9.98;65.71;98182.63;4175717;28;20029;-70
2024/03/03 01:23:42;;;;;;;25.90;16.65;;;;;;;9.92;65.89;98190.56;4175233;28;20013;-70
2024/03/03 01:25:43;;;;;;;25.55;16.60;;;;;;;9.89;66.08;98183.72;4172425;28;20029;-69
2024/03/03 01:27:44;;;;;;;28.23;16.98;;;;;;;9.97;65.75;98183.63;4164131;28;20060;-69
2024/03/03 01:29:45;;;;;;;27.92;16.95;;;;;;;9.94;65.83;98188.50;4165140;28;20018;-70
2024/03/03 01:31:45;;;;;;;26.50;16.75;;;;;;;9.89;65.97;98188.25;4168597;28;20036;-69
2024/03/03 01:33:46;;;;;;;25.73;16.50;;;;;;;9.86;65.81;98191.28;4165075;28;20091;-70
2024/03/03 01:35:46;;;;;;;26.02;16.58;;;;;;;9.84;66.08;98181.63;4164169;28;20387;-70
2024/03/03 01:37:47;;;;;;;25.45;15.98;;;;;;;9.79;66.13;98173.34;4164890;28;20363;-70
2024/03/03 01:39:47;;;;;;;27.73;17.48;;;;;;;9.71;66.60;98173.47;4164463;28;20017;-70
2024/03/03 01:41:48;;;;;;;26.73;17.30;;;;;;;9.74;66.37;98175.75;4164137;28;20593;-70
2024/03/03 01:43:48;;;;;;;26.48;16.65;;;;;;;9.65;66.54;98166.16;4164358;28;20040;-70
2024/03/03 01:45:49;;;;;;;26.17;16.50;;;;;;;9.59;66.69;98166.91;4164604;28;20706;-70
2024/03/03 01:47:56;;;;;;;25.50;16.70;;;;;;;9.72;66.25;98171.59;4171675;28;20524;-70
2024/03/03 01:49:57;;;;;;;23.83;16.02;;;;;;;9.88;65.61;98162.56;4164154;28;20038;-69
2024/03/03 01:52:00;;;;;;;26.05;15.82;;;;;;;9.89;65.66;98167.72;4163552;28;20025;-70
2024/03/03 01:54:01;;;;;;;26.35;16.05;;;;;;;9.87;65.60;98163.59;4163065;28;20116;-71
2024/03/03 01:56:03;;;;;;;25.35;16.08;;;;;;;9.72;66.07;98166.28;4163210;28;20028;-71
2024/03/03 01:58:04;;;;;;;25.48;16.65;;;;;;;9.73;65.96;98155.41;4163538;28;20449;-70
2024/03/03 02:00:09;;;;;;;23.25;15.48;;;;;;;9.81;65.75;98155.31;4163848;28;20036;-70
2024/03/03 02:02:11;;;;;;;24.33;16.27;;;;;;;9.81;65.53;98155.31;4173816;28;20064;-70
2024/03/03 02:04:12;;;;;;;21.48;14.57;;;;;;;9.95;65.24;98160.81;4179174;28;20418;-71
2024/03/03 02:06:19;;;;;;;27.13;16.27;;;;;;;9.86;65.22;98152.09;4179524;28;20428;-70
2024/03/03 02:08:20;;;;;;;23.65;15.77;;;;;;;9.75;65.69;98148.03;4179584;28;20029;-70
2024/03/03 02:10:22;;;;;;;25.35;17.17;;;;;;;9.70;65.83;98145.13;4179510;28;20039;-70
2024/03/03 02:12:25;;;;;;;23.08;15.93;;;;;;;9.56;66.11;98144.13;4179165;28;20170;-70
2024/03/03 02:14:25;;;;;;;25.67;16.30;;;;;;;9.60;66.01;98136.56;4179735;28;20024;-71
2024/03/03 02:16:26;;;;;;;26.52;17.45;;;;;;;9.61;65.99;98133.72;4179680;28;20033;-69
2024/03/03 02:18:26;;;;;;;26.38;16.63;;;;;;;9.48;66.34;98145.03;4179477;28;20025;-70
2024/03/03 02:20:27;;;;;;;27.53;16.70;;;;;;;9.45;66.30;98141.91;4179658;28;20025;-70
2024/03/03 02:22:28;;;;;;;;;;;;;;;9.55;65.96;98147.78;4177617;28;20319;-70
2024/03/03 02:24:28;;;;;;;24.17;15.10;;;;;;;9.64;65.38;98144.00;4179461;28;19908;-70
2024/03/03 02:26:29;;;;;;;20.02;13.60;;;;;;;9.77;65.13;98148.69;4179463;28;20551;-70
2024/03/03 02:28:31;;;;;;;17.60;12.27;;;;;;;9.88;64.72;98155.38;4179366;28;20064;-70
2024/03/03 02:30:31;;;;;;;23.85;15.25;;;;;;;9.71;65.06;98144.09;4179831;28;20048;-69
2024/03/03 02:32:32;;;;;;;25.80;16.95;;;;;;;9.52;65.63;98150.81;4178578;28;20032;-70
2024/03/03 02:34:32;;;;;;;24.23;16.57;;;;;;;9.49;66.03;98156.53;4179201;28;20112;-69
2024/03/03 02:36:33;;;;;;;23.60;16.33;;;;;;;9.51;65.90;98157.16;4179418;28;20748;-70
2024/03/03 02:38:33;;;;;;;25.35;14.88;;;;;;;9.57;65.70;98152.94;4176478;28;20732;-70
2024/03/03 02:40:33;;;;;;;26.80;15.70;;;;;;;9.59;65.67;98159.72;4162647;28;20528;-70
2024/03/03 02:42:34;;;;;;;21.88;15.15;;;;;;;9.60;65.48;98156.06;4162499;28;20750;-71
2024/03/03 02:44:34;;;;;;;23.10;15.70;;;;;;;9.60;65.47;98158.72;4163166;28;20389;-70
2024/03/03 02:46:35;;;;;;;24.17;16.30;;;;;;;9.64;65.49;98154.69;4162444;28;20029;-70
2024/03/03 02:48:35;;;;;;;22.58;15.40;;;;;;;9.78;64.90;98149.50;4162925;28;20089;-70
2024/03/03 02:50:36;;;;;;;22.95;14.65;;;;;;;9.73;64.92;98150.06;4167976;28;20486;-70
2024/03/03 02:52:36;;;;;;;23.10;15.27;;;;;;;9.81;64.89;98144.66;4173060;28;20534;-70
2024/03/03 02:54:37;;;;;;;24.07;15.13;;;;;;;9.69;65.13;98154.13;4165344;28;20267;-71
2024/03/03 02:56:37;;;;;;;25.42;15.68;;;;;;;9.70;65.00;98142.44;4172575;28;20268;-70
2024/03/03 02:58:38;;;;;;;24.20;16.13;;;;;;;9.70;65.14;98142.44;4165739;28;20029;-70
2024/03/03 03:00:38;;;;;;;23.52;15.48;;;;;;;9.74;64.92;98156.25;4173429;28;20018;-70
2024/03/03 03:02:39;;;;;;;20.15;13.50;;;;;;;9.78;64.71;98153.03;4170300;28;20033;-70
2024/03/03 03:04:39;;;;;;;21.58;14.57;;;;;;;9.70;64.97;98147.78;4171009;28;20025;-71
2024/03/03 03:06:40;;;;;;;21.87;14.33;;;;;;;9.63;65.14;98154.88;4168505;28;20091;-70
2024/03/03 03:08:41;;;;;;;21.38;14.35;;;;;;;9.62;65.11;98147.88;4169811;28;20309;-70
2024/03/03 03:10:41;;;;;;;24.07;15.93;;;;;;;9.60;65.31;98152.56;4169090;28;20044;-69
2024/03/03 03:12:42;;;;;;;21.83;13.73;;;;;;;9.60;65.11;98147.25;4192501;28;20052;-69
2024/03/03 03:14:42;;;;;;;23.00;14.80;;;;;;;9.54;65.32;98148.00;4193544;28;20025;-71
2024/03/03 03:16:43;;;;;;;22.45;14.13;;;;;;;9.48;65.52;98153.03;4185941;28;20033;-71
2024/03/03 03:18:44;;;;;;;24.90;16.55;;;;;;;9.45;65.53;98141.91;4175957;28;20029;-69
2024/03/03 03:20:44;;;;;;;24.33;14.55;;;;;;;9.41;65.75;98152.13;4179427;28;20051;-70
2024/03/03 03:22:44;;;;;;;26.00;16.15;;;;;;;9.35;65.76;98144.88;4178159;28;20044;-69
2024/03/03 03:24:46;;;;;;;28.50;15.75;;;;;;;9.32;65.91;98150.56;4180193;28;20048;-70
2024/03/03 03:26:47;;;;;;;24.90;15.45;;;;;;;9.25;66.15;98144.31;4178176;28;20037;-70
2024/03/03 03:28:47;;;;;;;30.58;17.58;;;;;;;9.13;66.37;98150.06;4177397;28;20033;-69
2024/03/03 03:30:48;;;;;;;26.67;17.42;;;;;;;9.07;66.72;98161.44;4179475;28;20028;-70
2024/03/03 03:32:48;;;;;;;25.13;16.17;;;;;;;9.06;66.72;98162.47;4179086;28;20025;-70
2024/03/03 03:34:48;;;;;;;23.50;15.70;;;;;;;9.29;66.05;98162.41;4166071;28;20406;-69
2024/03/03 03:36:50;;;;;;;23.35;13.63;;;;;;;9.31;65.83;98165.72;4179095;28;20263;-69
2024/03/03 03:38:51;;;;;;;21.40;14.75;;;;;;;9.30;65.80;98163.22;4179210;28;20029;-70
2024/03/03 03:40:51;;;;;;;24.35;14.90;;;;;;;9.19;66.09;98159.19;4178959;28;20548;-70
2024/03/03 03:42:51;;;;;;;19.43;14.30;;;;;;;9.20;66.12;98172.31;4178736;28;20095;-70
2024/03/03 03:44:52;;;;;;;21.37;14.07;;;;;;;9.16;66.13;98172.88;4180440;28;20267;-71
2024/03/03 03:46:52;;;;;;;19.27;12.77;;;;;;;9.22;66.00;98174.78;4181883;28;20643;-70
2024/03/03 03:48:53;;;;;;;20.40;12.52;;;;;;;9.29;65.90;98177.56;4182679;28;20359;-69
2024/03/03 03:50:53;;;;;;;19.15;12.65;;;;;;;9.31;65.66;98180.88;4182479;28;20116;-69
2024/03/03 03:52:54;;;;;;;20.30;13.80;;;;;;;9.28;65.88;98166.09;4181015;28;20122;-70
2024/03/03 03:54:54;;;;;;;23.08;13.98;;;;;;;9.26;65.86;98173.44;4182793;28;20438;-69
2024/03/03 03:56:56;;;;;;;20.85;13.77;;;;;;;9.27;65.73;98175.09;4182209;28;20078;-70
2024/03/03 03:59:00;;;;;;;25.88;15.45;;;;;;;9.13;66.42;98168.72;4182244;28;20045;-70
2024/03/03 04:01:03;;;;;;;24.27;14.88;;;;;;;8.89;66.99;98181.25;4180987;28;20051;-70
2024/03/03 04:03:05;;;;;;;28.90;17.23;;;;;;;8.85;67.13;98179.97;4182327;28;20409;-70
2024/03/03 04:05:06;;;;;;;22.52;15.38;;;;;;;8.85;67.26;98185.31;4182747;28;20075;-70
2024/03/03 04:07:09;;;;;;;23.58;15.63;;;;;;;8.86;67.09;98184.31;4199289;28;20033;-70
2024/03/03 04:09:10;;;;;;;25.25;15.57;;;;;;;8.90;66.97;98185.59;4202468;28;20088;-69
2024/03/03 04:11:21;;;;;;;26.07;16.07;;;;;;;8.80;67.30;98190.31;4201971;28;20469;-70
2024/03/03 04:13:21;;;;;;;;;;;;;;;8.86;67.60;98178.97;4201821;28;20338;-70
2024/03/03 04:15:22;;;;;;;28.40;16.00;;;;;;;8.85;66.97;98182.66;4202564;28;19921;-69
2024/03/03 04:17:23;;;;;;;23.58;14.50;;;;;;;8.86;66.88;98178.97;4196834;28;20025;-69
2024/03/03 04:19:23;;;;;;;24.17;15.77;;;;;;;8.81;67.08;98178.66;4169953;28;20112;-69
2024/03/03 04:21:23;;;;;;;23.15;15.35;;;;;;;8.83;66.98;98178.50;4164645;28;20071;-70
2024/03/03 04:23:24;;;;;;;25.13;14.63;;;;;;;8.79;67.05;98187.84;4164612;28;20434;-70
2024/03/03 04:25:24;;;;;;;24.00;15.47;;;;;;;8.80;67.01;98174.34;4164350;28;20357;-70
2024/03/03 04:27:25;;;;;;;20.73;13.57;;;;;;;8.92;66.69;98179.25;4164362;28;20105;-69
2024/03/03 04:29:26;;;;;;;23.80;15.20;;;;;;;8.86;66.87;98173.66;4165050;28;20029;-69
2024/03/03 04:31:26;;;;;;;24.93;14.90;;;;;;;8.87;66.68;98169.13;4165016;28;20025;-68
2024/03/03 04:33:27;;;;;;;22.70;15.23;;;;;;;8.81;66.86;98168.00;4164428;28;20292;-70
2024/03/03 04:35:27;;;;;;;24.08;14.77;;;;;;;8.80;66.88;98177.00;4164845;28;20021;-69
2024/03/03 04:37:28;;;;;;;22.45;14.88;;;;;;;8.77;66.87;98172.06;4163244;28;20045;-70
2024/03/03 04:39:28;;;;;;;25.33;16.20;;;;;;;8.76;66.92;98170.41;4164539;28;20037;-69
2024/03/03 04:41:31;;;;;;;26.65;16.50;;;;;;;8.73;67.07;98173.41;4167777;28;20040;-68
2024/03/03 04:43:31;;;;;;;19.98;14.70;;;;;;;8.74;67.09;98169.75;4164703;28;20053;-69
2024/03/03 04:45:31;;;;;;;25.45;15.90;;;;;;;8.73;66.92;98168.94;4164731;28;20033;-69
2024/03/03 04:47:32;;;;;;;26.77;16.05;;;;;;;8.70;67.05;98165.75;4164448;28;20482;-70
2024/03/03 04:49:33;;;;;;;26.33;16.88;;;;;;;8.60;67.27;98168.69;4163024;28;20438;-69
2024/03/03 04:51:33;;;;;;;28.30;17.08;;;;;;;8.43;67.92;98165.25;4164603;28;20028;-69
2024/03/03 04:53:33;;;;;;;30.90;17.73;;;;;;;8.41;68.02;98164.59;4163785;28;20643;-69
2024/03/03 04:55:34;;;;;;;26.77;17.63;;;;;;;8.36;68.27;98164.31;4162478;28;20269;-69
2024/03/03 04:57:34;;;;;;;25.87;17.30;;;;;;;8.28;68.59;98155.41;4164126;28;20398;-69
2024/03/03 04:59:35;;;;;;;23.42;15.77;;;;;;;8.41;68.19;98162.78;4164234;28;20264;-70
2024/03/03 05:01:40;;;;;;;23.02;15.32;;;;;;;8.51;67.63;98162.56;4164018;28;20045;-69
2024/03/03 05:03:42;;;;;;;21.10;14.70;;;;;;;8.52;67.75;98166.91;4164187;28;20029;-70
2024/03/03 05:05:42;;;;;;;21.00;13.93;;;;;;;8.62;67.42;98165.84;4163271;28;20029;-69
2024/03/03 05:07:43;;;;;;;23.25;14.27;;;;;;;8.72;67.00;98161.94;4163944;28;20079;-69
2024/03/03 05:09:43;;;;;;;24.67;16.30;;;;;;;8.63;67.22;98162.16;4163940;28;20029;-69
2024/03/03 05:11:44;;;;;;;26.63;17.30;;;;;;;8.52;67.67;98161.56;4164498;28;20056;-70
2024/03/03 05:13:44;;;;;;;22.95;15.82;;;;;;;8.54;67.71;98158.75;4164119;28;20124;-69
2024/03/03 05:15:45;;;;;;;26.40;16.73;;;;;;;8.60;67.45;98152.69;4163817;28;20075;-69
2024/03/03 05:17:45;;;;;;;24.85;15.63;;;;;;;8.62;67.21;98155.19;4168821;28;20478;-70
2024/03/03 05:19:46;;;;;;;22.05;15.05;;;;;;;8.67;67.11;98158.16;4168013;28;20052;-70
2024/03/03 05:21:46;;;;;;;24.97;15.73;;;;;;;8.63;67.16;98163.00;4164175;28;20045;-69
2024/03/03 05:23:47;;;;;;;25.48;17.95;;;;;;;8.55;67.38;98158.56;4163586;28;20803;-70
2024/03/03 05:25:47;;;;;;;26.20;17.08;;;;;;;8.60;67.56;98154.56;4180228;28;20048;-70
2024/03/03 05:27:47;;;;;;;23.40;14.47;;;;;;;8.64;67.36;98158.50;4183343;28;20088;-71
2024/03/03 05:29:48;;;;;;;23.85;15.10;;;;;;;8.68;67.21;98157.16;4190554;28;20009;-69
2024/03/03 05:31:49;;;;;;;25.50;16.60;;;;;;;8.63;67.44;98167.50;4195103;28;20040;-69
2024/03/03 05:33:49;;;;;;;24.73;16.25;;;;;;;8.65;67.41;98162.81;4180517;28;20021;-70
2024/03/03 05:35:49;;;;;;;22.98;16.30;;;;;;;8.80;66.94;98170.88;4180521;28;20576;-70
2024/03/03 05:37:51;;;;;;;23.23;15.03;;;;;;;8.78;66.86;98173.72;4181111;28;20704;-69
2024/03/03 05:39:51;;;;;;;21.00;13.85;;;;;;;8.79;66.61;98167.34;4179268;28;20863;-70
2024/03/03 05:41:52;;;;;;;22.13;13.82;;;;;;;8.77;66.64;98164.06;4180205;28;20025;-70
2024/03/03 05:43:52;;;;;;;23.87;15.73;;;;;;;8.69;66.95;98161.47;4180560;28;20032;-70
2024/03/03 05:45:53;;;;;;;24.25;16.33;;;;;;;8.65;67.08;98160.16;4180701;28;20021;-69
2024/03/03 05:47:54;;;;;;;24.83;16.25;;;;;;;8.53;67.40;98162.41;4180590;28;20029;-71
2024/03/03 05:49:55;;;;;;;30.10;16.55;;;;;;;8.50;67.43;98162.75;4180363;28;20546;-72
2024/03/03 05:51:55;;;;;;;24.35;15.68;;;;;;;8.52;67.38;98171.41;4180423;28;20021;-72
2024/03/03 05:53:55;;;;;;;24.08;16.88;;;;;;;8.40;67.69;98174.44;4180562;28;20385;-69
2024/03/03 05:55:56;;;;;;;24.48;15.93;;;;;;;8.38;67.76;98171.13;4178898;28;20048;-70
2024/03/03 05:57:57;;;;;;;27.42;16.65;;;;;;;8.33;67.81;98188.63;4180625;28;20024;-69
2024/03/03 05:59:57;;;;;;;23.92;14.95;;;;;;;8.32;67.81;98185.16;4180142;28;20140;-69
2024/03/03 06:01:58;;;;;;;25.17;15.38;;;;;;;8.27;68.04;98192.81;4179812;28;20041;-71
2024/03/03 06:03:58;;;;;;;25.27;16.35;;;;;;;8.22;68.18;98198.66;4179307;28;20024;-71
2024/03/03 06:05:59;;;;;;;27.42;17.20;;;;;;;8.23;68.01;98195.00;4179494;28;20579;-71
2024/03/03 06:08:00;;;;;;;28.00;18.92;;;;;;;8.16;68.17;98196.72;4179366;28;20421;-71
2024/03/03 06:10:01;;;;;;;25.83;16.92;;;;;;;8.11;68.48;98197.25;4179652;28;20021;-71
2024/03/03 06:12:02;;;;;;;29.35;17.25;;;;;;;8.06;68.67;98199.59;4179321;28;20029;-71
2024/03/03 06:14:03;;;;;;;26.88;17.88;;;;;;;8.09;68.51;98201.09;4179790;28;20029;-69
2024/03/03 06:16:04;;;;;;;22.58;15.02;;;;;;;8.23;68.05;98210.97;4178340;28;20032;-69
2024/03/03 06:18:04;;;;;;;23.48;15.07;;;;;;;8.33;67.70;98215.25;4179429;28;20114;-71
2024/03/03 06:20:06;;;;;;;23.52;15.57;;;;;;;8.33;67.60;98213.44;4180678;28;20035;-71
2024/03/03 06:22:07;;;;;;;24.65;16.15;;;;;;;8.35;67.70;98215.91;4181735;28;20037;-72
2024/03/03 06:24:09;;;;;;;20.33;13.10;;;;;;;8.38;67.45;98213.72;4183520;28;20021;-71
2024/03/03 06:26:14;;;;;;;22.88;15.25;;;;;;;8.28;67.65;98211.31;4183743;28;20029;-70
2024/03/03 06:28:15;;;;;;;26.75;16.05;;;;;;;8.26;68.00;98210.63;4192805;28;20027;-71
2024/03/03 06:30:15;;;;;;;22.33;14.80;;;;;;;8.26;67.76;98212.47;4194466;28;20025;-71
2024/03/03 06:32:16;;;;;;;25.60;15.80;;;;;;;8.19;68.28;98208.84;4193398;28;20032;-70
2024/03/03 06:34:16;;;;;;;31.08;16.88;;;;;;;8.18;68.32;98212.50;4195058;28;20097;-71
2024/03/03 06:36:18;;;;;;;24.42;17.17;;;;;;;8.20;68.38;98208.69;4196302;28;20032;-69
2024/03/03 06:38:18;;;;;;;25.23;16.60;;;;;;;8.22;68.27;98208.50;4196434;28;20381;-70
2024/03/03 06:40:20;;;;;;;25.90;17.20;;;;;;;8.03;68.73;98201.78;4197874;28;20028;-70
2024/03/03 06:42:22;;;;;;;25.58;16.13;;;;;;;8.16;68.49;98204.69;4195114;28;20036;-69
2024/03/03 06:44:23;;;;;;;29.70;17.48;;;;;;;8.12;68.59;98203.41;4180169;28;20044;-70
2024/03/03 06:46:23;;;;;;;24.50;16.13;;;;;;;8.19;68.28;98204.34;4178425;28;20550;-69
2024/03/03 06:48:23;;;;;;;29.73;17.30;;;;;;;8.18;68.30;98202.69;4179829;28;20503;-69
2024/03/03 06:50:24;;;;;;;25.42;16.77;;;;;;;8.16;68.42;98204.69;4179783;28;20074;-70
2024/03/03 06:52:24;;;;;;;29.52;18.48;;;;;;;8.10;68.50;98202.75;4177810;28;20054;-70
2024/03/03 06:54:24;;;;;;;25.48;17.80;;;;;;;8.01;68.76;98201.94;4179384;28;20021;-70
2024/03/03 06:56:25;;;;;;;24.40;15.50;;;;;;;8.11;68.41;98207.88;4179573;28;20112;-69
2024/03/03 06:58:25;;;;;;;25.53;18.17;;;;;;;7.92;68.97;98201.16;4179312;28;20259;-70
2024/03/03 07:00:26;;;;;;;27.45;19.48;;;;;;;7.91;69.12;98196.00;4179395;28;20055;-69
2024/03/03 07:02:56;;;;;;;27.92;18.40;;;;;;;8.06;68.77;98198.75;4179802;28;20372;-69
2024/03/03 07:04:46;;;;;;;27.50;17.85;;;;;;;7.96;69.26;98197.13;4179824;28;20041;-70
2024/03/03 07:06:47;;;;;;;27.95;18.45;;;;;;;8.05;68.88;98197.94;4165821;28;20130;-70
2024/03/03 07:08:48;;;;;;;30.38;19.30;;;;;;;8.02;69.23;98197.47;4166634;28;20030;-68
2024/03/03 07:10:48;;;;;;;29.73;19.97;;;;;;;7.96;69.44;98193.66;4163476;28;20017;-70
2024/03/03 07:12:48;;;;;;;31.13;19.10;;;;;;;8.06;69.40;98196.09;4165934;28;20052;-69
2024/03/03 07:14:49;;;;;;;29.58;19.63;;;;;;;8.15;69.11;98196.91;4172315;28;20785;-69
2024/03/03 07:16:50;;;;;;;32.92;19.35;;;;;;;8.31;68.83;98206.63;4163474;28;20048;-71
2024/03/03 07:18:50;;;;;;;;;;;;;;;8.25;69.09;98203.66;4165266;28;20087;-70
2024/03/03 07:20:51;;;;;;;28.70;18.83;;;;;;;8.21;69.15;98199.69;4165505;28;19909;-69
2024/03/03 07:22:51;;;;;;;34.25;19.25;;;;;;;8.35;68.96;98198.13;4163759;28;20072;-70
2024/03/03 07:24:51;;;;;;;35.37;21.03;;;;;;;8.22;69.52;98198.66;4164953;28;20428;-70
2024/03/03 07:26:52;;;;;;;30.23;20.50;;;;;;;8.26;69.70;98197.31;4163068;28;20275;-70
2024/03/03 07:28:53;;;;;;;30.50;20.05;;;;;;;8.25;69.44;98194.84;4163342;28;20052;-70
2024/03/03 07:30:53;;;;;;;34.20;21.10;;;;;;;8.23;69.83;98195.00;4165095;28;20030;-69
2024/03/03 07:32:53;;;;;;;32.25;20.38;;;;;;;8.42;69.49;98207.06;4164165;28;20032;-71
2024/03/03 07:34:55;;;;;;;31.30;20.43;;;;;;;8.43;69.39;98205.22;4165174;28;20032;-71
2024/03/03 07:36:56;;;;;;;32.40;19.90;;;;;;;8.59;68.93;98204.31;4164631;28;20275;-70
2024/03/03 07:38:56;;;;;;;34.85;22.17;;;;;;;8.61;68.99;98201.47;4164779;28;20033;-70
2024/03/03 07:40:56;;;;;;;32.20;20.60;;;;;;;8.58;68.88;98211.47;4162915;28;20065;-71
2024/03/03 07:42:57;;;;;;;28.58;20.10;;;;;;;8.72;68.53;98203.72;4164113;28;20029;-70
2024/03/03 07:44:57;;;;;;;30.73;19.92;;;;;;;8.98;67.92;98200.69;4163090;28;20068;-70
2024/03/03 07:46:58;;;;;;;34.15;22.58;;;;;;;8.79;68.14;98199.31;4163641;28;20670;-69
2024/03/03 07:48:59;;;;;;;33.40;21.42;;;;;;;8.99;67.63;98196.16;4165219;28;20025;-70
2024/03/03 07:51:02;;;;;;;31.13;20.30;;;;;;;8.99;67.54;98188.19;4165281;28;20025;-70
2024/03/03 07:53:02;;;;;;;30.90;20.52;;;;;;;9.06;67.31;98189.13;4172750;28;20023;-69
2024/03/03 07:55:03;;;;;;;29.95;19.80;;;;;;;9.19;67.00;98185.84;4171586;28;20579;-70
2024/03/03 07:57:04;;;;;;;32.03;19.63;;;;;;;9.17;66.98;98187.84;4169730;28;20722;-69
2024/03/03 07:59:06;;;;;;;35.88;20.75;;;;;;;9.23;66.81;98178.31;4176483;28;20080;-70
2024/03/03 08:01:06;;;;;;;30.92;21.08;;;;;;;9.20;66.79;98174.19;4170092;28;20041;-70
2024/03/03 08:03:10;;;;;;;31.77;20.83;;;;;;;9.22;66.70;98174.78;4168018;28;20067;-71
2024/03/03 08:05:10;;;;;;;30.08;20.13;;;;;;;9.38;66.37;98165.81;4167864;28;20116;-69
2024/03/03 08:07:11;;;;;;;32.35;20.92;;;;;;;9.41;66.07;98167.28;4170250;28;20036;-70
2024/03/03 08:09:12;;;;;;;31.48;19.77;;;;;;;9.43;66.25;98154.59;4168847;28;20061;-71
2024/03/03 08:11:12;;;;;;;29.73;19.15;;;;;;;9.49;66.04;98161.88;4179379;28;20013;-69
2024/03/03 08:13:13;;;;;;;30.23;20.13;;;;;;;9.60;65.66;98161.38;4177167;28;20025;-71
2024/03/03 08:15:13;;;;;;;31.65;19.90;;;;;;;9.82;65.03;98156.94;4176842;28;20492;-70
2024/03/03 08:17:14;;;;;;;30.63;20.35;;;;;;;9.84;65.14;98146.94;4181004;28;20041;-69
2024/03/03 08:19:14;;;;;;;30.63;20.58;;;;;;;9.77;65.39;98147.88;4173026;28;20029;-70
2024/03/03 08:21:15;;;;;;;30.92;20.27;;;;;;;9.96;64.84;98152.63;4171092;28;20381;-70
2024/03/03 08:23:15;;;;;;;30.42;18.70;;;;;;;10.01;64.62;98149.41;4174291;28;20067;-71
2024/03/03 08:25:18;;;;;;;28.45;18.88;;;;;;;10.10;64.03;98153.63;4169493;28;20536;-71
2024/03/03 08:27:19;;;;;;;28.88;19.48;;;;;;;10.23;63.88;98160.09;4173362;28;20099;-70
2024/03/03 08:29:20;;;;;;;;;;;;;;;10.38;62.91;98152.06;4171926;28;20437;-70
2024/03/03 08:31:20;;;;;;;27.03;17.23;;;;;;;10.54;63.19;98154.47;4171985;28;19925;-70
2024/03/03 08:33:20;;;;;;;27.60;18.65;;;;;;;10.80;62.70;98157.59;4172138;28;20053;-71
2024/03/03 08:35:21;;;;;;;28.20;17.92;;;;;;;10.67;62.82;98143.13;4173839;28;20036;-70
2024/03/03 08:37:21;;;;;;;27.27;18.50;;;;;;;10.71;62.39;98144.38;4173200;28;20031;-70
2024/03/03 08:39:22;;;;;;;28.58;18.95;;;;;;;10.92;62.10;98143.50;4179170;28;20111;-70
2024/03/03 08:41:22;;;;;;;26.67;18.98;;;;;;;10.97;61.67;98136.78;4174055;28;20485;-71
2024/03/03 08:43:23;;;;;;;30.70;19.77;;;;;;;11.03;61.45;98144.84;4173221;28;20025;-70
2024/03/03 08:45:26;;;;;;;24.85;18.40;;;;;;;11.17;61.24;98143.09;4172745;28;20516;-70
2024/03/03 08:47:26;;;;;;;30.15;19.17;;;;;;;11.37;60.78;98139.72;4171909;28;20037;-70
2024/03/03 08:49:27;;;;;;;27.13;17.70;;;;;;;11.36;60.73;98135.41;4173083;28;20373;-70
2024/03/03 08:51:27;;;;;;;26.83;18.77;;;;;;;11.40;60.54;98144.66;4173092;28;20683;-71
2024/03/03 08:53:28;;;;;;;29.58;18.55;;;;;;;11.35;60.67;98147.94;4173020;28;20077;-70
2024/03/03 08:55:28;;;;;;;25.98;19.02;;;;;;;11.51;60.38;98144.13;4173612;28;20079;-71
2024/03/03 08:57:29;;;;;;;30.83;19.73;;;;;;;11.51;60.29;98140.63;4173208;28;20493;-70
2024/03/03 08:59:30;;;;;;;25.77;18.52;;;;;;;11.37;60.43;98137.06;4172397;28;20119;-69
2024/03/03 09:01:30;;;;;;;27.58;18.80;;;;;;;11.55;60.08;98132.00;4172713;28;20091;-71
2024/03/03 09:03:31;;;;;;;27.35;19.00;;;;;;;11.65;59.65;98126.28;4172893;28;20044;-70
2024/03/03 09:05:31;;;;;;;;;;;;;;;11.85;59.00;98126.34;4173847;28;20021;-71
2024/03/03 09:07:32;;;;;;;26.03;16.50;;;;;;;11.84;59.08;98130.09;4172560;28;19955;-70
2024/03/03 09:09:32;;;;;;;25.55;18.17;;;;;;;12.05;58.74;98131.00;4173510;28;20071;-70
2024/03/03 09:11:33;;;;;;;24.33;17.73;;;;;;;12.32;58.16;98133.78;4172971;28;20021;-69
2024/03/03 09:13:34;;;;;;;25.50;17.27;;;;;;;12.44;57.80;98126.75;4172185;28;20035;-71
2024/03/03 09:15:34;;;;;;;;;;;;;;;12.33;57.17;98130.88;4172958;28;20470;-70
2024/03/03 09:17:35;;;;;;;23.70;16.43;;;;;;;12.63;57.46;98127.84;4172682;28;19917;-70
2024/03/03 09:19:36;;;;;;;24.38;17.45;;;;;;;12.67;57.09;98124.72;4171308;28;20024;-71
2024/03/03 09:21:36;;;;;;;24.08;17.15;;;;;;;12.52;57.29;98128.44;4172730;28;20488;-70